Time;durP1;ratioP1;P1;durP2;ratioP2;P2;SDS_P1;SDS_P2;PMS_P1;PMS_P2;Temp;Humidity;BMP_temperature;BMP_pressure;BME280_temperature;BME280_humidity;BME280_pressure;Samples;Min_cycle;Max_cycle;Signal;HPM_P1;HPM_P2
2022/01/25 00:28:52;;;;;;;22.58;11.02;;;;;;;;;;5053879;28;20134;-46
2022/01/25 00:31:18;;;;;;;13.05;7.50;;;;;;;;;;5060422;28;20108;-45
2022/01/25 00:33:45;;;;;;;19.25;12.50;;;;;;;;;;5058704;28;20112;-45
2022/01/25 00:36:12;;;;;;;24.63;13.15;;;;;;;;;;5056561;28;20025;-47
2022/01/25 00:38:38;;;;;;;14.63;9.75;;;;;;;;;;5056236;28;20017;-44
2022/01/25 00:41:03;;;;;;;17.05;9.85;;;;;;;;;;5057004;28;20047;-46
2022/01/25 00:43:30;;;;;;;28.10;13.38;;;;;;;;;;5054146;28;20017;-47
2022/01/25 00:45:59;;;;;;;24.25;10.98;;;;;;;;;;5056650;28;20029;-46
2022/01/25 00:51:56;;;;;;;16.30;10.00;;;;;;;;;;5053937;28;20079;-47
2022/01/25 00:53:58;;;;;;;22.08;13.20;;;;;;;;;;5055091;28;20040;-47
2022/01/25 00:56:24;;;;;;;28.65;13.07;;;;;;;;;;5059093;28;20148;-51
2022/01/25 00:58:50;;;;;;;17.30;11.50;;;;;;;;;;5058457;28;20456;-45
2022/01/25 01:01:16;;;;;;;26.83;11.60;;;;;;;;;;5058541;28;20067;-46
2022/01/25 01:03:41;;;;;;;25.83;12.23;;;;;;;;;;5054757;28;20115;-45
2022/01/25 01:06:06;;;;;;;18.55;12.18;;;;;;;;;;5055054;28;20116;-46
2022/01/25 01:08:32;;;;;;;30.52;14.52;;;;;;;;;;5055297;28;20023;-48
2022/01/25 01:11:00;;;;;;;33.55;18.92;;;;;;;;;;5053903;28;20446;-49
2022/01/25 01:16:46;;;;;;;29.65;14.63;;;;;;;;;;5055782;28;20024;-48
2022/01/25 01:32:47;;;;;;;17.42;8.60;;;;;;;;;;5054418;28;20032;-50
2022/01/25 01:37:51;;;;;;;24.23;16.10;;;;;;;;;;5056542;28;20636;-47
2022/01/25 01:40:44;;;;;;;18.15;10.32;;;;;;;;;;5055065;28;20031;-48
2022/01/25 01:43:26;;;;;;;26.37;15.23;;;;;;;;;;5056541;28;20520;-48
2022/01/25 01:49:17;;;;;;;17.45;12.02;;;;;;;;;;5053290;28;20056;-50
2022/01/25 01:51:19;;;;;;;17.08;10.95;;;;;;;;;;5041230;28;20829;-49
2022/01/25 01:53:44;;;;;;;15.90;8.15;;;;;;;;;;5054119;28;20051;-47
2022/01/25 01:56:10;;;;;;;17.73;9.43;;;;;;;;;;5053003;28;20049;-49
2022/01/25 01:58:36;;;;;;;20.73;11.88;;;;;;;;;;5052880;28;20082;-46
2022/01/25 02:01:02;;;;;;;17.25;10.20;;;;;;;;;;5053933;28;20154;-48
2022/01/25 02:03:28;;;;;;;18.40;10.80;;;;;;;;;;5057317;28;20017;-45
2022/01/25 02:05:53;;;;;;;23.52;10.93;;;;;;;;;;5056375;28;20044;-47
2022/01/25 02:08:18;;;;;;;13.45;9.63;;;;;;;;;;5058614;28;20042;-48
2022/01/25 02:10:44;;;;;;;19.92;10.52;;;;;;;;;;5056584;28;20495;-45
2022/01/25 02:13:10;;;;;;;14.27;8.63;;;;;;;;;;5052203;28;20387;-50
2022/01/25 02:15:36;;;;;;;19.88;11.07;;;;;;;;;;5060559;28;20020;-45
2022/01/25 02:23:30;;;;;;;17.40;12.82;;;;;;;;;;5054292;28;20024;-45
2022/01/25 02:25:58;;;;;;;14.02;10.07;;;;;;;;;;5057855;28;20029;-50
2022/01/25 02:28:25;;;;;;;17.40;8.50;;;;;;;;;;5059531;28;20020;-46
2022/01/25 02:30:51;;;;;;;14.52;8.55;;;;;;;;;;5055981;28;20016;-50
2022/01/25 02:33:16;;;;;;;11.00;7.38;;;;;;;;;;5053785;28;20025;-46
2022/01/25 02:35:42;;;;;;;8.80;6.20;;;;;;;;;;5056354;28;20017;-46
2022/01/25 02:38:07;;;;;;;9.90;6.50;;;;;;;;;;5052621;28;20024;-49
2022/01/25 02:40:33;;;;;;;17.98;10.07;;;;;;;;;;5059833;28;20027;-50
2022/01/25 02:42:58;;;;;;;18.30;9.70;;;;;;;;;;5061583;28;20016;-47
2022/01/25 02:45:31;;;;;;;18.17;8.48;;;;;;;;;;5061938;28;20473;-51
2022/01/25 02:50:40;;;;;;;9.02;6.20;;;;;;;;;;5062642;28;20082;-47
2022/01/25 02:53:05;;;;;;;15.88;6.88;;;;;;;;;;5063269;28;20028;-46
2022/01/25 02:55:31;;;;;;;19.95;7.53;;;;;;;;;;5061237;28;20489;-47
2022/01/25 02:57:56;;;;;;;11.20;7.10;;;;;;;;;;5058073;28;20465;-50
2022/01/25 03:00:21;;;;;;;9.90;5.80;;;;;;;;;;5060989;28;20021;-47
2022/01/25 03:02:46;;;;;;;13.75;7.00;;;;;;;;;;5058892;28;20024;-48
2022/01/25 03:05:12;;;;;;;13.93;6.82;;;;;;;;;;5057967;28;20136;-48
2022/01/25 03:07:38;;;;;;;12.32;6.28;;;;;;;;;;5061052;28;20051;-48
2022/01/25 03:10:04;;;;;;;10.95;7.35;;;;;;;;;;5058293;28;20020;-45
2022/01/25 03:12:40;;;;;;;8.05;7.15;;;;;;;;;;5060083;28;20028;-49
2022/01/25 03:17:45;;;;;;;20.92;13.60;;;;;;;;;;5057446;28;20078;-46
2022/01/25 03:20:18;;;;;;;27.10;13.90;;;;;;;;;;5061903;28;20032;-48
2022/01/25 03:22:59;;;;;;;19.63;13.65;;;;;;;;;;5062060;28;20107;-45
2022/01/25 03:25:25;;;;;;;19.77;10.95;;;;;;;;;;5058894;28;20035;-50
2022/01/25 03:27:51;;;;;;;16.63;9.68;;;;;;;;;;5058333;28;20021;-48
2022/01/25 03:30:16;;;;;;;17.80;6.60;;;;;;;;;;5055249;28;20397;-43
2022/01/25 03:32:41;;;;;;;10.65;6.68;;;;;;;;;;5060955;28;20393;-46
2022/01/25 03:35:07;;;;;;;12.82;7.03;;;;;;;;;;5057306;28;20709;-46
2022/01/25 03:37:32;;;;;;;6.85;4.93;;;;;;;;;;5056122;28;20090;-46
2022/01/25 03:39:58;;;;;;;7.80;4.68;;;;;;;;;;5058420;28;20112;-50
2022/01/25 03:42:24;;;;;;;9.55;5.68;;;;;;;;;;5053800;28;20075;-50
2022/01/25 03:44:50;;;;;;;13.30;7.10;;;;;;;;;;5057167;28;20512;-44
2022/01/25 03:47:19;;;;;;;6.30;4.15;;;;;;;;;;5059940;28;20104;-49
2022/01/25 03:49:51;;;;;;;4.05;3.33;;;;;;;;;;5056143;28;20110;-48
2022/01/25 03:52:25;;;;;;;5.13;3.20;;;;;;;;;;5058265;28;20048;-49
2022/01/25 03:54:50;;;;;;;13.70;6.88;;;;;;;;;;5054824;28;20033;-48
2022/01/25 03:57:16;;;;;;;5.80;4.15;;;;;;;;;;5056034;28;20044;-46
2022/01/25 03:59:41;;;;;;;7.25;5.60;;;;;;;;;;5058948;28;20016;-50
2022/01/25 04:02:07;;;;;;;8.45;5.25;;;;;;;;;;5059095;28;20035;-48
2022/01/25 04:04:34;;;;;;;9.95;5.18;;;;;;;;;;5059140;28;20433;-48
2022/01/25 04:07:07;;;;;;;24.23;5.28;;;;;;;;;;5061325;28;20048;-44
2022/01/25 04:09:33;;;;;;;5.78;4.05;;;;;;;;;;5056466;28;20024;-45
2022/01/25 04:11:58;;;;;;;8.52;5.45;;;;;;;;;;5060759;28;20078;-49
2022/01/25 04:14:24;;;;;;;8.30;5.60;;;;;;;;;;5061206;28;20627;-50
2022/01/25 04:19:35;;;;;;;5.47;4.25;;;;;;;;;;5057719;28;20013;-49
2022/01/25 04:27:27;;;;;;;9.18;5.13;;;;;;;;;;5052026;28;20040;-44
2022/01/25 04:29:53;;;;;;;10.82;6.43;;;;;;;;;;5055070;28;20112;-45
2022/01/25 04:32:19;;;;;;;4.78;3.38;;;;;;;;;;5056839;28;20029;-47
2022/01/25 04:35:07;;;;;;;6.47;4.10;;;;;;;;;;5058065;28;20029;-49
2022/01/25 04:54:03;;;;;;;5.95;4.18;;;;;;;;;;5049237;28;20039;-47
2022/01/25 04:56:39;;;;;;;5.45;4.82;;;;;;;;;;5055005;28;20056;-45
2022/01/25 04:59:16;;;;;;;9.13;5.70;;;;;;;;;;5060183;28;20084;-50
2022/01/25 05:01:42;;;;;;;7.00;6.22;;;;;;;;;;5059442;28;20047;-49
2022/01/25 05:04:21;;;;;;;5.78;3.20;;;;;;;;;;5057620;28;20017;-48
2022/01/25 05:06:48;;;;;;;4.65;3.15;;;;;;;;;;5057679;28;20551;-47
2022/01/25 05:09:15;;;;;;;7.43;3.63;;;;;;;;;;5053236;28;20194;-50
2022/01/25 05:11:47;;;;;;;2.58;1.48;;;;;;;;;;5056886;28;20025;-48
2022/01/25 05:14:18;;;;;;;3.78;1.73;;;;;;;;;;5058846;28;20024;-46
2022/01/25 05:17:01;;;;;;;11.38;5.45;;;;;;;;;;5055166;28;20478;-46
2022/01/25 05:22:18;;;;;;;7.55;6.68;;;;;;;;;;5059133;28;20532;-50
2022/01/25 05:24:44;;;;;;;18.17;10.00;;;;;;;;;;5053463;28;20116;-47
2022/01/25 05:27:11;;;;;;;14.27;10.32;;;;;;;;;;5051586;28;20679;-46
2022/01/25 05:29:37;;;;;;;19.02;12.05;;;;;;;;;;5055897;28;20052;-49
2022/01/25 05:32:02;;;;;;;20.50;11.98;;;;;;;;;;5055880;28;20055;-49
2022/01/25 05:34:28;;;;;;;15.43;11.60;;;;;;;;;;5053864;28;20531;-49
2022/01/25 05:36:53;;;;;;;14.35;8.23;;;;;;;;;;5052790;28;20059;-45
2022/01/25 05:39:24;;;;;;;9.80;7.97;;;;;;;;;;5055692;28;20087;-48
2022/01/25 05:47:07;;;;;;;17.02;9.55;;;;;;;;;;5053659;28;20060;-52
2022/01/25 05:49:36;;;;;;;9.75;7.82;;;;;;;;;;5056755;28;20032;-47
2022/01/25 05:52:05;;;;;;;11.73;9.82;;;;;;;;;;5054442;28;20056;-45
2022/01/25 05:54:31;;;;;;;12.68;7.68;;;;;;;;;;5052634;28;20107;-44
2022/01/25 05:56:56;;;;;;;11.15;9.60;;;;;;;;;;5053671;28;20506;-48
2022/01/25 05:59:21;;;;;;;17.10;12.75;;;;;;;;;;5047833;28;20029;-46
2022/01/25 06:01:48;;;;;;;19.52;15.15;;;;;;;;;;5053530;28;20020;-47
2022/01/25 06:04:13;;;;;;;24.30;12.40;;;;;;;;;;5052257;28;20056;-51
2022/01/25 06:06:39;;;;;;;12.82;9.45;;;;;;;;;;5051284;28;20063;-49
2022/01/25 06:09:04;;;;;;;13.25;8.70;;;;;;;;;;5056303;28;20028;-48
2022/01/25 06:11:29;;;;;;;12.50;10.15;;;;;;;;;;5054832;28;20468;-47
2022/01/25 06:13:55;;;;;;;11.63;10.43;;;;;;;;;;5058253;28;20021;-45
2022/01/25 06:16:20;;;;;;;17.05;11.23;;;;;;;;;;5053121;28;20021;-45
2022/01/25 06:18:45;;;;;;;12.95;9.90;;;;;;;;;;5057890;28;20488;-47
2022/01/25 06:21:11;;;;;;;10.25;8.85;;;;;;;;;;5048083;28;20561;-46
2022/01/25 06:23:36;;;;;;;12.95;11.13;;;;;;;;;;5050243;28;20035;-49
2022/01/25 06:26:02;;;;;;;16.52;10.32;;;;;;;;;;5054854;28;20722;-47
2022/01/25 06:28:27;;;;;;;19.20;11.20;;;;;;;;;;5049988;28;20013;-47
2022/01/25 06:30:52;;;;;;;16.67;14.75;;;;;;;;;;5055298;28;20025;-47
2022/01/25 06:33:17;;;;;;;18.92;12.43;;;;;;;;;;5056255;28;20115;-45
2022/01/25 06:35:45;;;;;;;32.33;12.15;;;;;;;;;;5057234;28;20046;-47
2022/01/25 06:38:11;;;;;;;20.70;10.60;;;;;;;;;;5059998;28;20066;-49
2022/01/25 06:40:36;;;;;;;17.55;10.82;;;;;;;;;;5050873;28;20029;-49
2022/01/25 06:43:02;;;;;;;22.00;15.82;;;;;;;;;;5051941;28;20446;-47
2022/01/25 06:45:27;;;;;;;17.30;12.95;;;;;;;;;;5051263;28;20040;-47
2022/01/25 06:47:53;;;;;;;20.73;14.90;;;;;;;;;;5053551;28;20470;-45
2022/01/25 06:50:20;;;;;;;20.77;15.70;;;;;;;;;;5056001;28;20024;-48
2022/01/25 06:52:46;;;;;;;25.33;16.45;;;;;;;;;;5053452;28;20070;-47
2022/01/25 06:55:15;;;;;;;28.30;23.52;;;;;;;;;;5058578;28;20016;-48
2022/01/25 06:57:41;;;;;;;20.45;18.17;;;;;;;;;;5057223;28;20044;-48
2022/01/25 07:00:10;;;;;;;24.38;19.27;;;;;;;;;;5055476;28;20025;-47
2022/01/25 07:02:36;;;;;;;24.88;18.65;;;;;;;;;;5053971;28;20017;-48
2022/01/25 07:05:01;;;;;;;32.28;21.45;;;;;;;;;;5055455;28;20021;-46
2022/01/25 07:07:27;;;;;;;25.77;22.10;;;;;;;;;;5056021;28;20032;-47
2022/01/25 07:09:52;;;;;;;34.05;17.52;;;;;;;;;;5056504;28;20033;-44
2022/01/25 07:12:17;;;;;;;22.98;16.80;;;;;;;;;;5053083;28;20032;-44
2022/01/25 07:14:43;;;;;;;24.27;16.98;;;;;;;;;;5056338;28;20074;-46
2022/01/25 07:17:08;;;;;;;18.55;14.98;;;;;;;;;;5055758;28;20032;-46
2022/01/25 07:19:33;;;;;;;22.40;18.73;;;;;;;;;;5054609;28;20058;-48
2022/01/25 07:21:59;;;;;;;30.75;20.23;;;;;;;;;;5054024;28;20540;-47
2022/01/25 07:24:24;;;;;;;15.23;13.00;;;;;;;;;;5054814;28;20033;-44
2022/01/25 07:26:50;;;;;;;16.67;14.93;;;;;;;;;;5059393;28;20020;-46
2022/01/25 07:29:16;;;;;;;21.35;18.05;;;;;;;;;;5055698;28;20080;-47
2022/01/25 07:31:41;;;;;;;22.52;17.92;;;;;;;;;;5055579;28;20592;-45
2022/01/25 07:34:07;;;;;;;28.50;19.60;;;;;;;;;;5057572;28;20047;-45
2022/01/25 07:36:34;;;;;;;187.07;140.27;;;;;;;;;;5057326;28;20104;-44
2022/01/25 07:39:00;;;;;;;222.82;160.10;;;;;;;;;;5057233;28;20505;-46
2022/01/25 07:41:25;;;;;;;137.50;99.38;;;;;;;;;;5057412;28;20031;-54
2022/01/25 07:43:50;;;;;;;89.18;68.60;;;;;;;;;;5058911;28;20521;-46
2022/01/25 07:46:16;;;;;;;116.68;86.93;;;;;;;;;;5060807;28;20028;-45
2022/01/25 07:48:42;;;;;;;103.47;82.25;;;;;;;;;;5061393;28;20540;-45
2022/01/25 07:51:07;;;;;;;131.20;90.68;;;;;;;;;;5058681;28;20083;-43
2022/01/25 07:53:32;;;;;;;59.05;45.67;;;;;;;;;;5056882;28;20021;-52
2022/01/25 07:55:58;;;;;;;42.28;31.05;;;;;;;;;;5058200;28;20037;-44
2022/01/25 07:58:23;;;;;;;72.85;54.20;;;;;;;;;;5057884;28;20103;-47
2022/01/25 08:00:49;;;;;;;72.80;52.35;;;;;;;;;;5056942;28;20063;-42
2022/01/25 08:03:16;;;;;;;61.40;45.40;;;;;;;;;;5055265;28;20025;-43
2022/01/25 08:05:44;;;;;;;62.72;43.55;;;;;;;;;;5056741;28;20712;-44
2022/01/25 08:08:10;;;;;;;70.95;48.13;;;;;;;;;;5063038;28;20024;-44
2022/01/25 08:10:35;;;;;;;64.95;46.15;;;;;;;;;;5056782;28;20476;-43
2022/01/25 08:13:00;;;;;;;72.25;53.85;;;;;;;;;;5056729;28;20108;-42
2022/01/25 08:15:26;;;;;;;89.85;57.85;;;;;;;;;;5055748;28;20017;-40
2022/01/25 08:17:51;;;;;;;65.72;50.90;;;;;;;;;;5057074;28;20159;-44
2022/01/25 08:20:17;;;;;;;72.18;52.50;;;;;;;;;;5052155;28;20489;-46
2022/01/25 08:22:44;;;;;;;88.28;57.47;;;;;;;;;;5055981;28;20610;-46
2022/01/25 08:25:10;;;;;;;66.60;54.92;;;;;;;;;;5061630;28;20076;-42
2022/01/25 08:27:35;;;;;;;59.70;44.78;;;;;;;;;;5057443;28;20527;-44
2022/01/25 08:30:01;;;;;;;63.00;51.25;;;;;;;;;;5056064;28;20017;-43
2022/01/25 08:32:26;;;;;;;55.55;41.47;;;;;;;;;;5055782;28;20514;-46
2022/01/25 08:34:51;;;;;;;56.40;42.25;;;;;;;;;;5059050;28;20036;-49
2022/01/25 08:37:17;;;;;;;59.33;46.72;;;;;;;;;;5054370;28;20471;-43
2022/01/25 08:39:42;;;;;;;56.20;43.13;;;;;;;;;;5058312;28;20044;-41
2022/01/25 08:42:08;;;;;;;53.47;42.38;;;;;;;;;;5059999;28;20020;-43
2022/01/25 08:44:33;;;;;;;51.60;36.45;;;;;;;;;;5056018;28;20095;-40
2022/01/25 08:46:59;;;;;;;42.03;35.00;;;;;;;;;;5056661;28;20502;-43
2022/01/25 08:49:24;;;;;;;44.97;35.75;;;;;;;;;;5059762;28;20029;-40
2022/01/25 08:51:50;;;;;;;46.58;35.85;;;;;;;;;;5053731;28;20129;-43
2022/01/25 08:54:16;;;;;;;42.72;31.98;;;;;;;;;;5053473;28;20028;-43
2022/01/25 08:56:42;;;;;;;46.85;36.28;;;;;;;;;;5055219;28;20064;-43
2022/01/25 08:59:08;;;;;;;63.33;41.05;;;;;;;;;;5059239;28;20009;-41
2022/01/25 09:01:33;;;;;;;59.83;40.92;;;;;;;;;;5056246;28;20024;-42
2022/01/25 09:04:00;;;;;;;42.22;32.90;;;;;;;;;;5054095;28;20021;-40
2022/01/25 09:06:26;;;;;;;54.75;35.40;;;;;;;;;;5058686;28;20024;-41
2022/01/25 09:08:51;;;;;;;50.17;33.78;;;;;;;;;;5056390;28;20021;-42
2022/01/25 09:11:19;;;;;;;34.42;28.42;;;;;;;;;;5054912;28;20036;-40
2022/01/25 09:13:45;;;;;;;34.78;24.02;;;;;;;;;;5051530;28;20044;-41
2022/01/25 09:16:10;;;;;;;32.38;23.30;;;;;;;;;;5055094;28;20031;-43
2022/01/25 09:18:36;;;;;;;29.98;21.80;;;;;;;;;;5057600;28;20020;-41
2022/01/25 09:21:02;;;;;;;32.22;20.58;;;;;;;;;;5057800;28;20035;-42
2022/01/25 09:23:27;;;;;;;17.38;13.48;;;;;;;;;;5053837;28;20025;-43
2022/01/25 09:25:55;;;;;;;33.97;26.35;;;;;;;;;;5053025;28;20442;-46
2022/01/25 09:28:20;;;;;;;33.13;29.55;;;;;;;;;;5057914;28;20029;-39
2022/01/25 09:30:46;;;;;;;27.73;24.65;;;;;;;;;;5054579;28;20051;-40
2022/01/25 09:33:11;;;;;;;32.08;25.05;;;;;;;;;;5054536;28;20082;-41
2022/01/25 09:35:37;;;;;;;24.02;15.88;;;;;;;;;;5056569;28;20012;-42
2022/01/25 09:38:02;;;;;;;24.60;17.17;;;;;;;;;;5051654;28;20013;-41
2022/01/25 09:40:28;;;;;;;20.10;14.95;;;;;;;;;;5054166;28;20054;-43
2022/01/25 09:42:56;;;;;;;20.77;15.32;;;;;;;;;;5056950;28;20438;-42
2022/01/25 09:45:21;;;;;;;18.83;11.63;;;;;;;;;;5056377;28;20025;-44
2022/01/25 09:47:47;;;;;;;11.35;9.13;;;;;;;;;;5054239;28;20338;-43
2022/01/25 09:50:13;;;;;;;13.90;9.00;;;;;;;;;;5056313;28;20021;-40
2022/01/25 09:52:40;;;;;;;10.23;5.65;;;;;;;;;;5059187;28;20661;-41
2022/01/25 09:55:09;;;;;;;8.60;2.58;;;;;;;;;;5053117;28;20058;-40
2022/01/25 09:57:35;;;;;;;7.15;1.83;;;;;;;;;;5050928;28;20037;-40
2022/01/25 10:00:00;;;;;;;7.93;2.33;;;;;;;;;;5053459;28;20020;-43
2022/01/25 10:02:35;;;;;;;10.50;3.10;;;;;;;;;;5049199;28;20035;-44
2022/01/25 10:05:14;;;;;;;5.03;2.95;;;;;;;;;;5055058;28;20024;-45
2022/01/25 10:07:39;;;;;;;8.30;5.13;;;;;;;;;;5055902;28;20032;-43
2022/01/25 10:10:05;;;;;;;9.88;5.95;;;;;;;;;;5052633;28;20123;-45
2022/01/25 10:12:31;;;;;;;4.75;3.92;;;;;;;;;;5053884;28;20540;-41
2022/01/25 10:14:59;;;;;;;10.00;8.32;;;;;;;;;;5057014;28;20604;-45
2022/01/25 10:17:34;;;;;;;3.80;2.50;;;;;;;;;;5053447;28;20013;-44
2022/01/25 10:19:59;;;;;;;3.33;2.42;;;;;;;;;;5055549;28;20095;-45
2022/01/25 10:22:25;;;;;;;6.28;3.30;;;;;;;;;;5059697;28;20668;-48
2022/01/25 10:24:50;;;;;;;4.38;2.65;;;;;;;;;;5052598;28;20082;-45
2022/01/25 10:27:15;;;;;;;3.70;2.05;;;;;;;;;;5054155;28;20044;-47
2022/01/25 10:29:41;;;;;;;8.77;4.68;;;;;;;;;;5052165;28;20425;-43
2022/01/25 10:32:09;;;;;;;8.70;4.40;;;;;;;;;;5052857;28;20021;-45
2022/01/25 10:34:40;;;;;;;9.57;4.53;;;;;;;;;;5053676;28;20024;-44
2022/01/25 10:37:06;;;;;;;4.70;3.53;;;;;;;;;;5053031;28;20020;-44
2022/01/25 10:39:33;;;;;;;9.55;5.65;;;;;;;;;;5052958;28;20052;-46
2022/01/25 10:42:10;;;;;;;9.23;6.13;;;;;;;;;;5053953;28;20097;-46
2022/01/25 10:44:45;;;;;;;11.70;9.73;;;;;;;;;;5054407;28;20024;-47
2022/01/25 10:47:10;;;;;;;11.00;6.95;;;;;;;;;;5053335;28;20532;-47
2022/01/25 10:49:43;;;;;;;12.85;10.10;;;;;;;;;;5052206;28;20025;-47
2022/01/25 10:52:08;;;;;;;15.18;9.55;;;;;;;;;;5056217;28;20014;-48
2022/01/25 10:54:38;;;;;;;7.75;6.78;;;;;;;;;;5054871;28;20036;-45
2022/01/25 10:57:03;;;;;;;4.18;2.47;;;;;;;;;;5053525;28;20576;-46
2022/01/25 10:59:32;;;;;;;6.38;3.55;;;;;;;;;;5052261;28;20075;-48
2022/01/25 11:01:59;;;;;;;5.35;3.72;;;;;;;;;;5055356;28;20060;-43
2022/01/25 11:04:25;;;;;;;20.27;10.38;;;;;;;;;;5059759;28;20066;-43
2022/01/25 11:07:10;;;;;;;18.02;14.63;;;;;;;;;;5059745;28;20100;-46
2022/01/25 11:09:37;;;;;;;18.23;15.13;;;;;;;;;;5063278;28;20110;-48
2022/01/25 11:12:04;;;;;;;15.02;12.15;;;;;;;;;;5062640;28;20052;-44
2022/01/25 11:17:14;;;;;;;6.05;4.65;;;;;;;;;;5060410;28;20020;-49
2022/01/25 11:19:40;;;;;;;12.13;5.00;;;;;;;;;;5059622;28;20021;-45
2022/01/25 11:22:07;;;;;;;6.22;4.30;;;;;;;;;;5055373;28;20108;-45
2022/01/25 11:24:34;;;;;;;6.50;4.57;;;;;;;;;;5060243;28;20469;-45
2022/01/25 11:27:03;;;;;;;20.33;11.15;;;;;;;;;;5063286;28;20037;-45
2022/01/25 11:29:28;;;;;;;11.15;7.50;;;;;;;;;;5057199;28;20021;-44
2022/01/25 11:32:09;;;;;;;15.73;5.45;;;;;;;;;;5059733;28;20024;-46
2022/01/25 11:34:36;;;;;;;12.25;8.00;;;;;;;;;;5059315;28;20048;-45
2022/01/25 11:37:04;;;;;;;8.45;6.07;;;;;;;;;;5055703;28;20021;-44
2022/01/25 11:39:30;;;;;;;6.80;4.47;;;;;;;;;;5059432;28;20028;-49
2022/01/25 11:42:25;;;;;;;7.22;4.43;;;;;;;;;;5053966;28;20017;-47
2022/01/25 11:44:50;;;;;;;6.50;2.72;;;;;;;;;;5053738;28;20028;-50
2022/01/25 11:47:16;;;;;;;3.80;1.80;;;;;;;;;;5055884;28;20098;-42
2022/01/25 11:49:49;;;;;;;6.40;4.43;;;;;;;;;;5055682;28;20067;-44
2022/01/25 11:52:15;;;;;;;4.95;4.15;;;;;;;;;;5056453;28;20035;-44
2022/01/25 11:54:41;;;;;;;5.13;2.40;;;;;;;;;;5057623;28;20017;-43
2022/01/25 11:57:14;;;;;;;14.00;3.22;;;;;;;;;;5058658;28;20110;-46
2022/01/25 11:59:40;;;;;;;4.07;2.55;;;;;;;;;;5059991;28;20021;-43
2022/01/25 12:02:05;;;;;;;7.80;4.00;;;;;;;;;;5055941;28;20066;-45
2022/01/25 12:04:31;;;;;;;6.28;3.13;;;;;;;;;;5059198;28;20029;-46
2022/01/25 12:07:03;;;;;;;6.95;3.10;;;;;;;;;;5058508;28;20052;-44
2022/01/25 12:09:44;;;;;;;7.80;5.30;;;;;;;;;;5055113;28;20028;-43
2022/01/25 12:12:10;;;;;;;6.43;3.47;;;;;;;;;;5057060;28;20048;-43
2022/01/25 12:14:44;;;;;;;4.93;3.40;;;;;;;;;;5056941;28;20119;-42
2022/01/25 12:17:14;;;;;;;4.40;3.63;;;;;;;;;;5056800;28;20087;-42
2022/01/25 12:19:47;;;;;;;8.27;3.63;;;;;;;;;;5060123;28;20017;-43
2022/01/25 12:22:16;;;;;;;7.13;2.65;;;;;;;;;;5055696;28;20621;-45
2022/01/25 12:24:53;;;;;;;5.22;3.03;;;;;;;;;;5055193;28;20027;-41
2022/01/25 12:27:33;;;;;;;4.40;2.25;;;;;;;;;;5058893;28;20035;-46
2022/01/25 12:30:12;;;;;;;5.30;3.63;;;;;;;;;;5057065;28;20021;-43
2022/01/25 12:32:43;;;;;;;7.20;3.53;;;;;;;;;;5056870;28;20066;-42
2022/01/25 12:35:08;;;;;;;;;;;;;;;;;;5056369;28;20025;-40
2022/01/25 12:37:43;;;;;;;7.77;3.33;;;;;;;;;;5056352;28;19955;-43
2022/01/25 12:40:26;;;;;;;5.10;3.75;;;;;;;;;;5053837;28;20310;-42
2022/01/25 12:43:00;;;;;;;9.48;4.80;;;;;;;;;;5054234;28;20019;-41
2022/01/25 12:45:28;;;;;;;6.72;4.60;;;;;;;;;;5054231;28;20105;-42
2022/01/25 12:48:04;;;;;;;3.03;2.15;;;;;;;;;;5058468;28;20047;-43
2022/01/25 12:50:30;;;;;;;10.15;4.43;;;;;;;;;;5053750;28;20136;-43
2022/01/25 12:52:58;;;;;;;11.45;4.13;;;;;;;;;;5052364;28;20035;-48
2022/01/25 12:55:27;;;;;;;5.72;2.50;;;;;;;;;;5056849;28;20016;-45
2022/01/25 12:57:53;;;;;;;6.75;3.67;;;;;;;;;;5056186;28;20046;-46
2022/01/25 13:00:18;;;;;;;4.85;4.20;;;;;;;;;;5058105;28;20477;-44
2022/01/25 13:02:44;;;;;;;4.80;3.50;;;;;;;;;;5057736;28;20513;-42
2022/01/25 13:05:13;;;;;;;3.95;2.38;;;;;;;;;;5055754;28;20025;-43
2022/01/25 13:07:39;;;;;;;12.80;8.15;;;;;;;;;;5052115;28;20024;-47
2022/01/25 13:10:06;;;;;;;12.20;4.47;;;;;;;;;;5056196;28;20017;-46
2022/01/25 13:12:36;;;;;;;4.57;3.17;;;;;;;;;;5057969;28;20029;-42
2022/01/25 13:15:15;;;;;;;5.93;3.00;;;;;;;;;;5053373;28;20051;-43
2022/01/25 13:17:41;;;;;;;6.47;3.25;;;;;;;;;;5057174;28;20028;-44
2022/01/25 13:20:06;;;;;;;5.63;1.83;;;;;;;;;;5059737;28;20025;-44
2022/01/25 13:22:39;;;;;;;3.75;2.97;;;;;;;;;;5056401;28;20024;-42
2022/01/25 13:27:47;;;;;;;11.15;2.30;;;;;;;;;;5054810;28;20146;-37
2022/01/25 13:32:58;;;;;;;5.00;2.88;;;;;;;;;;5056316;28;20036;-42
2022/01/25 13:35:28;;;;;;;4.53;3.67;;;;;;;;;;5054863;28;20543;-41
2022/01/25 13:38:12;;;;;;;6.18;3.78;;;;;;;;;;5056020;28;20025;-43
2022/01/25 13:40:49;;;;;;;12.23;4.90;;;;;;;;;;5055195;28;20649;-40
2022/01/25 13:45:56;;;;;;;7.15;5.95;;;;;;;;;;5052591;28;20017;-44
2022/01/25 13:48:24;;;;;;;;;;;;;;;;;;5057817;28;20020;-41
2022/01/25 13:50:53;;;;;;;9.38;4.05;;;;;;;;;;5058414;28;19915;-41
2022/01/25 13:53:18;;;;;;;11.13;8.82;;;;;;;;;;5055043;28;20032;-39
2022/01/25 13:55:50;;;;;;;12.20;11.18;;;;;;;;;;5056617;28;20417;-39
2022/01/25 13:58:23;;;;;;;18.65;16.95;;;;;;;;;;5057154;28;20740;-41
2022/01/25 14:00:49;;;;;;;31.50;28.33;;;;;;;;;;5050877;28;20096;-41
2022/01/25 14:03:15;;;;;;;26.85;24.23;;;;;;;;;;5055571;28;20115;-40
2022/01/25 14:05:40;;;;;;;17.35;15.52;;;;;;;;;;5054510;28;20074;-41
2022/01/25 14:08:06;;;;;;;6.47;5.88;;;;;;;;;;5054013;28;20024;-41
2022/01/25 14:10:31;;;;;;;5.15;4.22;;;;;;;;;;5057543;28;20016;-40
2022/01/25 14:23:54;;;;;;;6.03;2.67;;;;;;;;;;5058299;28;20034;-41
2022/01/25 14:26:20;;;;;;;7.45;4.45;;;;;;;;;;5057431;28;20040;-42
2022/01/25 14:28:54;;;;;;;6.68;2.72;;;;;;;;;;5057798;28;20021;-41
2022/01/25 14:31:21;;;;;;;2.72;1.85;;;;;;;;;;5056762;28;20025;-42
2022/01/25 14:33:52;;;;;;;6.57;4.13;;;;;;;;;;5053304;28;20020;-40
2022/01/25 14:36:17;;;;;;;;;;;;;;;;;;5062262;28;20112;-41
2022/01/25 14:38:44;;;;;;;7.17;5.80;;;;;;;;;;5060445;28;19987;-40
2022/01/25 14:41:11;;;;;;;24.52;16.67;;;;;;;;;;5062578;28;20108;-41
2022/01/25 14:43:45;;;;;;;16.73;11.05;;;;;;;;;;5061331;28;20024;-42
2022/01/25 14:46:13;;;;;;;16.60;10.30;;;;;;;;;;5059562;28;20021;-43
2022/01/25 14:48:41;;;;;;;10.70;8.98;;;;;;;;;;5061374;28;20104;-43
2022/01/25 14:51:09;;;;;;;14.77;10.95;;;;;;;;;;5061597;28;20025;-43
2022/01/25 14:53:35;;;;;;;15.82;7.18;;;;;;;;;;5057833;28;20032;-44
2022/01/25 14:56:01;;;;;;;12.32;3.25;;;;;;;;;;5060991;28;20570;-42
2022/01/25 15:01:31;;;;;;;8.48;7.30;;;;;;;;;;5024089;28;20026;-44
2022/01/25 15:03:57;;;;;;;5.53;5.00;;;;;;;;;;5023719;28;20032;-40
2022/01/25 15:06:23;;;;;;;6.50;3.28;;;;;;;;;;5038632;28;20037;-40
2022/01/25 15:08:52;;;;;;;3.80;2.72;;;;;;;;;;5062513;28;20742;-40
2022/01/25 15:11:19;;;;;;;7.15;4.32;;;;;;;;;;5062561;28;20028;-41
2022/01/25 15:13:44;;;;;;;8.15;4.32;;;;;;;;;;5060605;28;20040;-42
2022/01/25 15:16:10;;;;;;;5.55;2.83;;;;;;;;;;5059698;28;20025;-40
2022/01/25 15:18:38;;;;;;;4.90;3.53;;;;;;;;;;5059483;28;20081;-41
2022/01/25 15:21:04;;;;;;;8.95;7.72;;;;;;;;;;5057420;28;20659;-40
2022/01/25 15:23:32;;;;;;;8.20;7.20;;;;;;;;;;5060200;28;20025;-41
2022/01/25 15:26:00;;;;;;;5.43;3.97;;;;;;;;;;5059544;28;20019;-40
2022/01/25 15:28:35;;;;;;;4.43;3.30;;;;;;;;;;5058713;28;20029;-43
2022/01/25 15:31:01;;;;;;;10.30;8.63;;;;;;;;;;5060098;28;20028;-42
2022/01/25 15:33:26;;;;;;;10.18;5.32;;;;;;;;;;5059213;28;20052;-41
2022/01/25 15:35:51;;;;;;;10.23;7.70;;;;;;;;;;5058088;28;20449;-40
2022/01/25 15:38:17;;;;;;;12.63;10.95;;;;;;;;;;5059301;28;20102;-40
2022/01/25 15:40:42;;;;;;;20.85;17.45;;;;;;;;;;5057938;28;20158;-42
2022/01/25 15:43:08;;;;;;;15.80;13.23;;;;;;;;;;5062802;28;20104;-42
2022/01/25 15:45:53;;;;;;;26.88;18.35;;;;;;;;;;5060551;28;20020;-41
2022/01/25 15:48:18;;;;;;;24.67;22.30;;;;;;;;;;5058857;28;20017;-39
2022/01/25 15:50:44;;;;;;;22.95;16.10;;;;;;;;;;5061314;28;20039;-41
2022/01/25 15:53:09;;;;;;;17.17;13.98;;;;;;;;;;5058125;28;20381;-39
2022/01/25 15:55:34;;;;;;;18.90;16.83;;;;;;;;;;5058692;28;20083;-42
2022/01/25 15:58:00;;;;;;;14.45;12.18;;;;;;;;;;5058076;28;20077;-39
2022/01/25 16:00:25;;;;;;;30.50;24.30;;;;;;;;;;5059242;28;20021;-43
2022/01/25 16:02:50;;;;;;;41.28;35.03;;;;;;;;;;5057689;28;20035;-41
2022/01/25 16:05:17;;;;;;;40.05;31.88;;;;;;;;;;5058514;28;20050;-39
2022/01/25 16:07:43;;;;;;;36.58;32.90;;;;;;;;;;5055251;28;20044;-39
2022/01/25 16:10:09;;;;;;;42.28;38.05;;;;;;;;;;5057864;28;20047;-44
2022/01/25 16:12:34;;;;;;;48.45;43.45;;;;;;;;;;5058190;28;20029;-46
2022/01/25 16:14:59;;;;;;;57.65;51.83;;;;;;;;;;5056703;28;20386;-47
2022/01/25 16:17:25;;;;;;;42.80;32.85;;;;;;;;;;5057207;28;20036;-44
2022/01/25 16:19:50;;;;;;;22.77;18.40;;;;;;;;;;5056420;28;20062;-46
2022/01/25 16:22:16;;;;;;;19.80;16.65;;;;;;;;;;5059197;28;20657;-44
2022/01/25 16:24:41;;;;;;;16.92;15.13;;;;;;;;;;5056590;28;20033;-45
2022/01/25 16:27:06;;;;;;;21.08;15.13;;;;;;;;;;5058662;28;20021;-43
2022/01/25 16:29:33;;;;;;;36.15;30.52;;;;;;;;;;5056599;28;20039;-48
2022/01/25 16:31:59;;;;;;;17.30;9.27;;;;;;;;;;5056316;28;20029;-46